sensor_id;sensor_type;location;lat;lon;timestamp;temperature;humidity
24844;DHT22;12921;51.392;12.240;2022-08-25T00:01:19;19.00;99.90
24844;DHT22;12921;51.392;12.240;2022-08-25T00:03:46;19.00;99.90
24844;DHT22;12921;51.392;12.240;2022-08-25T00:06:12;18.90;99.90
24844;DHT22;12921;51.392;12.240;2022-08-25T00:08:38;18.80;99.90
24844;DHT22;12921;51.392;12.240;2022-08-25T00:11:13;18.70;99.90
24844;DHT22;12921;51.392;12.240;2022-08-25T00:13:41;18.60;99.90
24844;DHT22;12921;51.392;12.240;2022-08-25T00:16:09;18.60;99.90
24844;DHT22;12921;51.392;12.240;2022-08-25T00:18:36;18.50;99.90
24844;DHT22;12921;51.392;12.240;2022-08-25T00:21:04;18.50;99.90
24844;DHT22;12921;51.392;12.240;2022-08-25T00:23:30;18.50;99.90
24844;DHT22;12921;51.392;12.240;2022-08-25T00:25:55;18.50;99.90
24844;DHT22;12921;51.392;12.240;2022-08-25T00:28:21;18.50;99.90
24844;DHT22;12921;51.392;12.240;2022-08-25T00:30:47;18.50;99.90
24844;DHT22;12921;51.392;12.240;2022-08-25T00:33:14;18.50;99.90
24844;DHT22;12921;51.392;12.240;2022-08-25T00:35:40;18.50;99.90
24844;DHT22;12921;51.392;12.240;2022-08-25T00:38:08;18.50;99.90
24844;DHT22;12921;51.392;12.240;2022-08-25T00:40:34;18.50;99.90
24844;DHT22;12921;51.392;12.240;2022-08-25T00:43:01;18.50;99.90
24844;DHT22;12921;51.392;12.240;2022-08-25T00:45:27;18.50;99.90
24844;DHT22;12921;51.392;12.240;2022-08-25T00:47:53;18.60;99.90
24844;DHT22;12921;51.392;12.240;2022-08-25T00:50:20;18.60;99.90
24844;DHT22;12921;51.392;12.240;2022-08-25T00:52:50;18.60;99.90
24844;DHT22;12921;51.392;12.240;2022-08-25T00:55:24;18.60;99.90
24844;DHT22;12921;51.392;12.240;2022-08-25T00:57:55;18.60;99.90
24844;DHT22;12921;51.392;12.240;2022-08-25T01:00:30;18.60;99.90
24844;DHT22;12921;51.392;12.240;2022-08-25T01:02:56;18.60;99.90
24844;DHT22;12921;51.392;12.240;2022-08-25T01:05:22;18.60;99.90
24844;DHT22;12921;51.392;12.240;2022-08-25T01:07:48;18.60;99.90
24844;DHT22;12921;51.392;12.240;2022-08-25T01:10:16;18.60;99.90
24844;DHT22;12921;51.392;12.240;2022-08-25T01:12:43;18.60;99.90
24844;DHT22;12921;51.392;12.240;2022-08-25T01:15:10;18.60;99.90
24844;DHT22;12921;51.392;12.240;2022-08-25T01:17:49;18.60;99.90
24844;DHT22;12921;51.392;12.240;2022-08-25T01:20:15;18.50;99.90
24844;DHT22;12921;51.392;12.240;2022-08-25T01:22:42;18.50;99.90
24844;DHT22;12921;51.392;12.240;2022-08-25T01:25:26;18.50;99.90
24844;DHT22;12921;51.392;12.240;2022-08-25T01:27:54;18.50;99.90
24844;DHT22;12921;51.392;12.240;2022-08-25T01:30:20;18.50;99.90
24844;DHT22;12921;51.392;12.240;2022-08-25T01:32:46;18.50;99.90
24844;DHT22;12921;51.392;12.240;2022-08-25T01:35:11;18.50;99.90
24844;DHT22;12921;51.392;12.240;2022-08-25T01:37:39;18.50;99.90
24844;DHT22;12921;51.392;12.240;2022-08-25T01:40:05;18.40;99.90
24844;DHT22;12921;51.392;12.240;2022-08-25T01:45:13;18.40;99.90
24844;DHT22;12921;51.392;12.240;2022-08-25T01:47:39;18.30;99.90
24844;DHT22;12921;51.392;12.240;2022-08-25T01:50:06;18.40;99.90
24844;DHT22;12921;51.392;12.240;2022-08-25T01:55:10;18.40;99.90
24844;DHT22;12921;51.392;12.240;2022-08-25T01:57:36;18.40;99.90
24844;DHT22;12921;51.392;12.240;2022-08-25T02:00:05;18.40;99.90
24844;DHT22;12921;51.392;12.240;2022-08-25T02:02:31;18.40;99.90
24844;DHT22;12921;51.392;12.240;2022-08-25T02:04:57;18.40;99.90
24844;DHT22;12921;51.392;12.240;2022-08-25T02:07:22;18.40;99.90
24844;DHT22;12921;51.392;12.240;2022-08-25T02:09:48;18.40;99.90
24844;DHT22;12921;51.392;12.240;2022-08-25T02:12:13;18.40;99.90
24844;DHT22;12921;51.392;12.240;2022-08-25T02:14:40;18.40;99.90
24844;DHT22;12921;51.392;12.240;2022-08-25T02:17:05;18.50;99.90
24844;DHT22;12921;51.392;12.240;2022-08-25T02:19:32;18.40;99.90
24844;DHT22;12921;51.392;12.240;2022-08-25T02:21:58;18.40;99.90
24844;DHT22;12921;51.392;12.240;2022-08-25T02:24:24;18.40;99.90
24844;DHT22;12921;51.392;12.240;2022-08-25T02:26:50;18.40;99.90
24844;DHT22;12921;51.392;12.240;2022-08-25T02:29:16;18.40;99.90
24844;DHT22;12921;51.392;12.240;2022-08-25T02:31:43;18.40;99.90
24844;DHT22;12921;51.392;12.240;2022-08-25T02:34:09;18.40;99.90
24844;DHT22;12921;51.392;12.240;2022-08-25T02:36:36;18.30;99.90
24844;DHT22;12921;51.392;12.240;2022-08-25T02:39:04;18.30;99.90
24844;DHT22;12921;51.392;12.240;2022-08-25T02:41:30;18.20;99.90
24844;DHT22;12921;51.392;12.240;2022-08-25T02:43:59;18.20;99.90
24844;DHT22;12921;51.392;12.240;2022-08-25T02:46:25;18.20;99.90
24844;DHT22;12921;51.392;12.240;2022-08-25T02:48:52;18.10;99.90
24844;DHT22;12921;51.392;12.240;2022-08-25T02:51:19;18.10;99.90
24844;DHT22;12921;51.392;12.240;2022-08-25T02:53:46;18.20;99.90
24844;DHT22;12921;51.392;12.240;2022-08-25T02:56:14;18.10;99.90
24844;DHT22;12921;51.392;12.240;2022-08-25T02:58:40;18.10;99.90
24844;DHT22;12921;51.392;12.240;2022-08-25T03:01:08;18.10;99.90
24844;DHT22;12921;51.392;12.240;2022-08-25T03:03:39;18.00;99.90
24844;DHT22;12921;51.392;12.240;2022-08-25T03:06:07;18.00;99.90
24844;DHT22;12921;51.392;12.240;2022-08-25T03:08:35;17.90;99.90
24844;DHT22;12921;51.392;12.240;2022-08-25T03:11:01;17.90;99.90
24844;DHT22;12921;51.392;12.240;2022-08-25T03:13:26;17.90;99.90
24844;DHT22;12921;51.392;12.240;2022-08-25T03:15:52;17.90;99.90
24844;DHT22;12921;51.392;12.240;2022-08-25T03:18:18;17.80;99.90
24844;DHT22;12921;51.392;12.240;2022-08-25T03:20:44;17.90;99.90
24844;DHT22;12921;51.392;12.240;2022-08-25T03:23:10;17.90;99.90
24844;DHT22;12921;51.392;12.240;2022-08-25T03:25:39;17.90;99.90
24844;DHT22;12921;51.392;12.240;2022-08-25T03:28:23;17.90;99.90
24844;DHT22;12921;51.392;12.240;2022-08-25T03:30:49;17.90;99.90
24844;DHT22;12921;51.392;12.240;2022-08-25T03:33:15;17.90;99.90
24844;DHT22;12921;51.392;12.240;2022-08-25T03:35:40;17.90;99.90
24844;DHT22;12921;51.392;12.240;2022-08-25T03:38:06;17.90;99.90
24844;DHT22;12921;51.392;12.240;2022-08-25T03:40:32;17.80;99.90
24844;DHT22;12921;51.392;12.240;2022-08-25T03:42:58;17.80;99.90
24844;DHT22;12921;51.392;12.240;2022-08-25T03:45:24;17.80;99.90
24844;DHT22;12921;51.392;12.240;2022-08-25T03:47:51;17.80;99.90
24844;DHT22;12921;51.392;12.240;2022-08-25T03:50:18;17.70;99.90
24844;DHT22;12921;51.392;12.240;2022-08-25T03:52:48;17.70;99.90
24844;DHT22;12921;51.392;12.240;2022-08-25T03:55:15;17.70;99.90
24844;DHT22;12921;51.392;12.240;2022-08-25T03:57:40;17.70;99.90
24844;DHT22;12921;51.392;12.240;2022-08-25T04:00:08;17.70;99.90
24844;DHT22;12921;51.392;12.240;2022-08-25T04:02:34;17.60;99.90
24844;DHT22;12921;51.392;12.240;2022-08-25T04:05:00;17.60;99.90
24844;DHT22;12921;51.392;12.240;2022-08-25T04:07:26;17.60;99.90
24844;DHT22;12921;51.392;12.240;2022-08-25T04:09:53;17.60;99.90
24844;DHT22;12921;51.392;12.240;2022-08-25T04:12:20;17.70;99.90
24844;DHT22;12921;51.392;12.240;2022-08-25T04:14:46;17.70;99.90
24844;DHT22;12921;51.392;12.240;2022-08-25T04:17:12;17.70;99.90
24844;DHT22;12921;51.392;12.240;2022-08-25T04:19:38;17.70;99.90
24844;DHT22;12921;51.392;12.240;2022-08-25T04:22:04;17.70;99.90
24844;DHT22;12921;51.392;12.240;2022-08-25T04:24:30;17.70;99.90
24844;DHT22;12921;51.392;12.240;2022-08-25T04:26:56;17.70;99.90
24844;DHT22;12921;51.392;12.240;2022-08-25T04:29:23;17.70;99.90
24844;DHT22;12921;51.392;12.240;2022-08-25T04:31:49;17.70;99.90
24844;DHT22;12921;51.392;12.240;2022-08-25T04:34:17;17.80;99.90
24844;DHT22;12921;51.392;12.240;2022-08-25T04:36:44;17.80;99.90
24844;DHT22;12921;51.392;12.240;2022-08-25T04:39:10;17.80;99.90
24844;DHT22;12921;51.392;12.240;2022-08-25T04:41:35;17.90;99.90
24844;DHT22;12921;51.392;12.240;2022-08-25T04:44:01;17.90;99.90
24844;DHT22;12921;51.392;12.240;2022-08-25T04:46:30;18.00;99.90
24844;DHT22;12921;51.392;12.240;2022-08-25T04:48:58;18.10;99.90
24844;DHT22;12921;51.392;12.240;2022-08-25T04:51:29;18.20;99.90
24844;DHT22;12921;51.392;12.240;2022-08-25T04:54:01;18.30;99.90
24844;DHT22;12921;51.392;12.240;2022-08-25T04:56:29;18.40;99.90
24844;DHT22;12921;51.392;12.240;2022-08-25T04:59:02;18.60;99.90
24844;DHT22;12921;51.392;12.240;2022-08-25T05:01:28;18.80;99.90
24844;DHT22;12921;51.392;12.240;2022-08-25T05:03:58;18.90;99.90
24844;DHT22;12921;51.392;12.240;2022-08-25T05:06:25;19.20;99.90
24844;DHT22;12921;51.392;12.240;2022-08-25T05:08:51;19.30;99.90
24844;DHT22;12921;51.392;12.240;2022-08-25T05:11:18;19.40;99.90
24844;DHT22;12921;51.392;12.240;2022-08-25T05:13:45;19.60;99.90
24844;DHT22;12921;51.392;12.240;2022-08-25T05:16:12;19.90;99.90
24844;DHT22;12921;51.392;12.240;2022-08-25T05:18:38;20.20;99.90
24844;DHT22;12921;51.392;12.240;2022-08-25T05:21:09;20.50;99.90
24844;DHT22;12921;51.392;12.240;2022-08-25T05:23:35;20.90;99.90
24844;DHT22;12921;51.392;12.240;2022-08-25T05:26:04;21.10;99.90
24844;DHT22;12921;51.392;12.240;2022-08-25T05:28:31;21.40;99.90
24844;DHT22;12921;51.392;12.240;2022-08-25T05:30:58;21.70;99.90
24844;DHT22;12921;51.392;12.240;2022-08-25T05:33:25;21.80;99.90
24844;DHT22;12921;51.392;12.240;2022-08-25T05:35:50;22.00;99.90
24844;DHT22;12921;51.392;12.240;2022-08-25T05:38:16;22.10;99.90
24844;DHT22;12921;51.392;12.240;2022-08-25T05:40:42;22.20;99.90
24844;DHT22;12921;51.392;12.240;2022-08-25T05:43:08;22.20;99.90
24844;DHT22;12921;51.392;12.240;2022-08-25T05:45:33;22.10;99.90
24844;DHT22;12921;51.392;12.240;2022-08-25T05:47:59;22.00;99.90
24844;DHT22;12921;51.392;12.240;2022-08-25T05:50:25;22.10;99.90
24844;DHT22;12921;51.392;12.240;2022-08-25T05:52:51;22.20;99.90
24844;DHT22;12921;51.392;12.240;2022-08-25T05:55:17;22.30;99.90
24844;DHT22;12921;51.392;12.240;2022-08-25T05:57:43;22.50;99.90
24844;DHT22;12921;51.392;12.240;2022-08-25T06:00:09;22.70;99.90
24844;DHT22;12921;51.392;12.240;2022-08-25T06:02:37;23.00;99.90
24844;DHT22;12921;51.392;12.240;2022-08-25T06:05:07;23.40;99.90
24844;DHT22;12921;51.392;12.240;2022-08-25T06:07:32;23.60;99.90
24844;DHT22;12921;51.392;12.240;2022-08-25T06:09:59;23.90;99.90
24844;DHT22;12921;51.392;12.240;2022-08-25T06:12:25;23.70;99.90
24844;DHT22;12921;51.392;12.240;2022-08-25T06:14:51;23.40;99.90
24844;DHT22;12921;51.392;12.240;2022-08-25T06:17:17;23.30;99.90
24844;DHT22;12921;51.392;12.240;2022-08-25T06:19:42;22.90;99.90
24844;DHT22;12921;51.392;12.240;2022-08-25T06:22:08;22.90;99.90
24844;DHT22;12921;51.392;12.240;2022-08-25T06:24:34;22.70;99.90
24844;DHT22;12921;51.392;12.240;2022-08-25T06:27:00;22.90;99.90
24844;DHT22;12921;51.392;12.240;2022-08-25T06:29:26;23.00;99.90
24844;DHT22;12921;51.392;12.240;2022-08-25T06:31:51;23.30;99.90
24844;DHT22;12921;51.392;12.240;2022-08-25T06:34:18;23.70;99.90
24844;DHT22;12921;51.392;12.240;2022-08-25T06:36:44;23.80;99.90
24844;DHT22;12921;51.392;12.240;2022-08-25T06:39:10;23.80;99.90
24844;DHT22;12921;51.392;12.240;2022-08-25T06:41:36;23.90;99.90
24844;DHT22;12921;51.392;12.240;2022-08-25T06:44:02;23.90;99.90
24844;DHT22;12921;51.392;12.240;2022-08-25T06:46:28;23.80;99.90
24844;DHT22;12921;51.392;12.240;2022-08-25T06:48:56;24.00;99.90
24844;DHT22;12921;51.392;12.240;2022-08-25T06:51:23;24.10;99.90
24844;DHT22;12921;51.392;12.240;2022-08-25T06:53:49;24.00;99.90
24844;DHT22;12921;51.392;12.240;2022-08-25T06:56:16;23.80;99.90
24844;DHT22;12921;51.392;12.240;2022-08-25T06:58:42;23.80;99.90
24844;DHT22;12921;51.392;12.240;2022-08-25T07:01:15;23.90;99.90
24844;DHT22;12921;51.392;12.240;2022-08-25T07:03:42;23.90;99.90
24844;DHT22;12921;51.392;12.240;2022-08-25T07:06:08;23.90;99.90
24844;DHT22;12921;51.392;12.240;2022-08-25T07:08:34;24.10;99.90
24844;DHT22;12921;51.392;12.240;2022-08-25T07:11:10;24.30;99.90
24844;DHT22;12921;51.392;12.240;2022-08-25T07:13:37;24.40;99.90
24844;DHT22;12921;51.392;12.240;2022-08-25T07:16:04;24.40;99.90
24844;DHT22;12921;51.392;12.240;2022-08-25T07:18:31;24.60;99.90
24844;DHT22;12921;51.392;12.240;2022-08-25T07:20:57;25.00;99.90
24844;DHT22;12921;51.392;12.240;2022-08-25T07:23:24;24.90;99.90
24844;DHT22;12921;51.392;12.240;2022-08-25T07:25:50;24.80;99.90
24844;DHT22;12921;51.392;12.240;2022-08-25T07:28:17;24.60;99.90
24844;DHT22;12921;51.392;12.240;2022-08-25T07:30:44;24.80;99.90
24844;DHT22;12921;51.392;12.240;2022-08-25T07:33:10;24.70;99.90
24844;DHT22;12921;51.392;12.240;2022-08-25T07:35:36;24.80;99.90
24844;DHT22;12921;51.392;12.240;2022-08-25T07:38:03;24.90;99.90
24844;DHT22;12921;51.392;12.240;2022-08-25T07:40:31;25.00;99.90
24844;DHT22;12921;51.392;12.240;2022-08-25T07:42:59;25.20;99.90
24844;DHT22;12921;51.392;12.240;2022-08-25T07:45:28;25.10;99.90
24844;DHT22;12921;51.392;12.240;2022-08-25T07:47:59;25.00;99.90
24844;DHT22;12921;51.392;12.240;2022-08-25T07:50:26;25.10;99.90
24844;DHT22;12921;51.392;12.240;2022-08-25T07:52:52;25.10;99.90
24844;DHT22;12921;51.392;12.240;2022-08-25T07:55:18;25.10;99.90
24844;DHT22;12921;51.392;12.240;2022-08-25T07:57:44;25.20;99.90
24844;DHT22;12921;51.392;12.240;2022-08-25T08:00:13;25.40;99.90
24844;DHT22;12921;51.392;12.240;2022-08-25T08:02:41;25.30;99.90
24844;DHT22;12921;51.392;12.240;2022-08-25T08:05:08;25.10;99.90
24844;DHT22;12921;51.392;12.240;2022-08-25T08:07:34;25.00;99.90
24844;DHT22;12921;51.392;12.240;2022-08-25T08:10:00;24.90;99.90
24844;DHT22;12921;51.392;12.240;2022-08-25T08:12:27;24.80;99.90
24844;DHT22;12921;51.392;12.240;2022-08-25T08:14:53;24.70;99.90
24844;DHT22;12921;51.392;12.240;2022-08-25T08:17:21;24.60;99.90
24844;DHT22;12921;51.392;12.240;2022-08-25T08:19:47;24.60;99.90
24844;DHT22;12921;51.392;12.240;2022-08-25T08:22:13;24.60;99.90
24844;DHT22;12921;51.392;12.240;2022-08-25T08:24:43;24.60;99.90
24844;DHT22;12921;51.392;12.240;2022-08-25T08:27:10;24.80;99.90
24844;DHT22;12921;51.392;12.240;2022-08-25T08:29:38;25.30;99.90
24844;DHT22;12921;51.392;12.240;2022-08-25T08:32:06;25.50;99.90
24844;DHT22;12921;51.392;12.240;2022-08-25T08:34:32;25.70;99.90
24844;DHT22;12921;51.392;12.240;2022-08-25T08:36:58;25.60;99.90
24844;DHT22;12921;51.392;12.240;2022-08-25T08:39:25;25.60;99.90
24844;DHT22;12921;51.392;12.240;2022-08-25T08:45:10;26.10;99.90
24844;DHT22;12921;51.392;12.240;2022-08-25T08:50:33;26.10;99.90
24844;DHT22;12921;51.392;12.240;2022-08-25T08:55:52;26.10;99.90
24844;DHT22;12921;51.392;12.240;2022-08-25T08:58:57;26.30;99.90
24844;DHT22;12921;51.392;12.240;2022-08-25T09:01:28;26.20;99.90
24844;DHT22;12921;51.392;12.240;2022-08-25T09:04:17;26.60;99.90
24844;DHT22;12921;51.392;12.240;2022-08-25T09:06:47;27.00;99.90
24844;DHT22;12921;51.392;12.240;2022-08-25T09:09:19;27.10;99.90
24844;DHT22;12921;51.392;12.240;2022-08-25T09:25:31;26.90;99.90
24844;DHT22;12921;51.392;12.240;2022-08-25T09:30:57;27.30;99.90
24844;DHT22;12921;51.392;12.240;2022-08-25T09:33:21;27.40;99.90
24844;DHT22;12921;51.392;12.240;2022-08-25T09:35:49;27.50;99.90
24844;DHT22;12921;51.392;12.240;2022-08-25T09:38:15;27.40;99.90
24844;DHT22;12921;51.392;12.240;2022-08-25T09:40:46;27.20;99.90
24844;DHT22;12921;51.392;12.240;2022-08-25T09:46:23;26.90;99.90
24844;DHT22;12921;51.392;12.240;2022-08-25T09:48:52;26.80;99.90
24844;DHT22;12921;51.392;12.240;2022-08-25T09:51:29;27.00;99.90
24844;DHT22;12921;51.392;12.240;2022-08-25T09:56:53;27.10;99.90
24844;DHT22;12921;51.392;12.240;2022-08-25T10:01:56;27.20;99.90
24844;DHT22;12921;51.392;12.240;2022-08-25T10:04:33;27.40;99.90
24844;DHT22;12921;51.392;12.240;2022-08-25T10:07:04;27.10;99.90
24844;DHT22;12921;51.392;12.240;2022-08-25T10:09:40;27.00;99.90
24844;DHT22;12921;51.392;12.240;2022-08-25T10:12:22;27.20;99.90
24844;DHT22;12921;51.392;12.240;2022-08-25T10:14:50;27.10;99.90
24844;DHT22;12921;51.392;12.240;2022-08-25T10:17:17;27.10;99.90
24844;DHT22;12921;51.392;12.240;2022-08-25T10:20:34;26.70;99.90
24844;DHT22;12921;51.392;12.240;2022-08-25T10:22:40;26.70;99.90
24844;DHT22;12921;51.392;12.240;2022-08-25T10:25:08;26.80;99.90
24844;DHT22;12921;51.392;12.240;2022-08-25T10:27:53;26.90;99.90
24844;DHT22;12921;51.392;12.240;2022-08-25T10:30:41;27.10;99.90
24844;DHT22;12921;51.392;12.240;2022-08-25T10:36:29;27.70;99.90
24844;DHT22;12921;51.392;12.240;2022-08-25T10:38:59;27.80;99.90
24844;DHT22;12921;51.392;12.240;2022-08-25T10:41:41;28.10;99.90
24844;DHT22;12921;51.392;12.240;2022-08-25T10:44:37;28.30;99.90
24844;DHT22;12921;51.392;12.240;2022-08-25T10:58:28;28.50;99.90
24844;DHT22;12921;51.392;12.240;2022-08-25T11:04:12;28.40;99.90
24844;DHT22;12921;51.392;12.240;2022-08-25T11:06:40;28.40;99.90
24844;DHT22;12921;51.392;12.240;2022-08-25T11:09:11;28.40;99.90
24844;DHT22;12921;51.392;12.240;2022-08-25T11:11:46;28.20;99.90
24844;DHT22;12921;51.392;12.240;2022-08-25T11:14:18;28.30;99.90
24844;DHT22;12921;51.392;12.240;2022-08-25T11:17:18;28.50;99.90
24844;DHT22;12921;51.392;12.240;2022-08-25T11:19:46;28.60;99.90
24844;DHT22;12921;51.392;12.240;2022-08-25T11:22:29;28.70;99.90
24844;DHT22;12921;51.392;12.240;2022-08-25T11:25:16;29.00;99.90
24844;DHT22;12921;51.392;12.240;2022-08-25T11:30:40;29.30;99.90
24844;DHT22;12921;51.392;12.240;2022-08-25T11:33:06;29.40;99.90
24844;DHT22;12921;51.392;12.240;2022-08-25T11:36:04;29.70;99.90
24844;DHT22;12921;51.392;12.240;2022-08-25T11:41:40;29.70;99.90
24844;DHT22;12921;51.392;12.240;2022-08-25T11:50:24;28.70;99.90
24844;DHT22;12921;51.392;12.240;2022-08-25T11:52:56;28.50;99.90
24844;DHT22;12921;51.392;12.240;2022-08-25T12:01:11;28.50;99.90
24844;DHT22;12921;51.392;12.240;2022-08-25T12:09:17;29.10;99.90
24844;DHT22;12921;51.392;12.240;2022-08-25T12:11:49;29.10;99.90
24844;DHT22;12921;51.392;12.240;2022-08-25T12:14:33;29.00;99.90
24844;DHT22;12921;51.392;12.240;2022-08-25T12:17:06;29.00;99.90
24844;DHT22;12921;51.392;12.240;2022-08-25T12:29:42;28.90;99.90
24844;DHT22;12921;51.392;12.240;2022-08-25T12:45:48;29.50;99.90
24844;DHT22;12921;51.392;12.240;2022-08-25T12:51:09;29.70;99.90
24844;DHT22;12921;51.392;12.240;2022-08-25T12:53:43;29.60;99.90
24844;DHT22;12921;51.392;12.240;2022-08-25T12:56:36;29.70;99.90
24844;DHT22;12921;51.392;12.240;2022-08-25T13:12:49;29.90;99.90
24844;DHT22;12921;51.392;12.240;2022-08-25T13:18:20;30.00;99.90
24844;DHT22;12921;51.392;12.240;2022-08-25T13:20:53;30.10;99.90
24844;DHT22;12921;51.392;12.240;2022-08-25T13:23:27;29.80;99.90
24844;DHT22;12921;51.392;12.240;2022-08-25T13:25:55;29.80;99.90
24844;DHT22;12921;51.392;12.240;2022-08-25T13:28:33;30.00;99.90
24844;DHT22;12921;51.392;12.240;2022-08-25T13:31:02;30.10;99.90
24844;DHT22;12921;51.392;12.240;2022-08-25T13:33:29;30.30;99.90
24844;DHT22;12921;51.392;12.240;2022-08-25T13:35:56;30.50;99.90
24844;DHT22;12921;51.392;12.240;2022-08-25T13:38:43;30.70;99.90
24844;DHT22;12921;51.392;12.240;2022-08-25T13:41:15;31.00;99.90
24844;DHT22;12921;51.392;12.240;2022-08-25T13:43:41;30.60;99.90
24844;DHT22;12921;51.392;12.240;2022-08-25T13:46:06;30.40;99.90
24844;DHT22;12921;51.392;12.240;2022-08-25T13:48:35;30.30;99.90
24844;DHT22;12921;51.392;12.240;2022-08-25T13:53:34;30.50;99.90
24844;DHT22;12921;51.392;12.240;2022-08-25T13:56:01;30.70;99.90
24844;DHT22;12921;51.392;12.240;2022-08-25T13:58:34;30.70;99.90
24844;DHT22;12921;51.392;12.240;2022-08-25T14:03:41;30.50;99.90
24844;DHT22;12921;51.392;12.240;2022-08-25T14:06:21;30.10;99.90
24844;DHT22;12921;51.392;12.240;2022-08-25T14:09:11;29.90;99.90
24844;DHT22;12921;51.392;12.240;2022-08-25T14:11:46;29.80;99.90
24844;DHT22;12921;51.392;12.240;2022-08-25T14:19:23;29.70;99.90
24844;DHT22;12921;51.392;12.240;2022-08-25T14:21:50;29.60;99.90
24844;DHT22;12921;51.392;12.240;2022-08-25T14:24:19;29.80;99.90
24844;DHT22;12921;51.392;12.240;2022-08-25T14:26:46;29.90;99.90
24844;DHT22;12921;51.392;12.240;2022-08-25T14:29:12;30.00;99.90
24844;DHT22;12921;51.392;12.240;2022-08-25T14:31:40;29.90;99.90
24844;DHT22;12921;51.392;12.240;2022-08-25T14:34:22;30.00;99.90
24844;DHT22;12921;51.392;12.240;2022-08-25T14:36:50;30.10;99.90
24844;DHT22;12921;51.392;12.240;2022-08-25T14:39:17;30.10;99.90
24844;DHT22;12921;51.392;12.240;2022-08-25T14:41:43;30.10;99.90
24844;DHT22;12921;51.392;12.240;2022-08-25T14:44:10;30.20;99.90
24844;DHT22;12921;51.392;12.240;2022-08-25T14:46:41;30.40;99.90
24844;DHT22;12921;51.392;12.240;2022-08-25T14:49:11;30.50;99.90
24844;DHT22;12921;51.392;12.240;2022-08-25T14:51:39;30.70;99.90
24844;DHT22;12921;51.392;12.240;2022-08-25T14:54:10;30.60;99.90
24844;DHT22;12921;51.392;12.240;2022-08-25T14:56:37;30.50;99.90
24844;DHT22;12921;51.392;12.240;2022-08-25T14:59:03;30.30;99.90
24844;DHT22;12921;51.392;12.240;2022-08-25T15:01:29;30.30;99.90
24844;DHT22;12921;51.392;12.240;2022-08-25T15:04:06;30.10;99.90
24844;DHT22;12921;51.392;12.240;2022-08-25T15:06:34;30.10;99.90
24844;DHT22;12921;51.392;12.240;2022-08-25T15:09:00;30.00;99.90
24844;DHT22;12921;51.392;12.240;2022-08-25T15:11:33;29.80;99.90
24844;DHT22;12921;51.392;12.240;2022-08-25T15:13:59;29.80;99.90
24844;DHT22;12921;51.392;12.240;2022-08-25T15:16:33;29.60;99.90
24844;DHT22;12921;51.392;12.240;2022-08-25T15:19:02;29.50;99.90
24844;DHT22;12921;51.392;12.240;2022-08-25T15:21:29;29.50;99.90
24844;DHT22;12921;51.392;12.240;2022-08-25T15:23:55;29.60;99.90
24844;DHT22;12921;51.392;12.240;2022-08-25T15:26:22;29.80;99.90
24844;DHT22;12921;51.392;12.240;2022-08-25T15:28:49;29.90;99.90
24844;DHT22;12921;51.392;12.240;2022-08-25T15:31:17;29.50;99.90
24844;DHT22;12921;51.392;12.240;2022-08-25T15:33:43;29.30;99.90
24844;DHT22;12921;51.392;12.240;2022-08-25T15:36:10;29.20;99.90
24844;DHT22;12921;51.392;12.240;2022-08-25T15:38:37;29.20;99.90
24844;DHT22;12921;51.392;12.240;2022-08-25T15:41:04;29.10;99.90
24844;DHT22;12921;51.392;12.240;2022-08-25T15:43:30;29.00;99.90
24844;DHT22;12921;51.392;12.240;2022-08-25T15:45:56;28.90;99.90
24844;DHT22;12921;51.392;12.240;2022-08-25T15:48:22;28.90;99.90
24844;DHT22;12921;51.392;12.240;2022-08-25T15:50:52;28.90;99.90
24844;DHT22;12921;51.392;12.240;2022-08-25T15:53:19;29.00;99.90
24844;DHT22;12921;51.392;12.240;2022-08-25T15:55:45;29.00;99.90
24844;DHT22;12921;51.392;12.240;2022-08-25T15:58:11;29.10;99.90
24844;DHT22;12921;51.392;12.240;2022-08-25T16:00:37;29.20;99.90
24844;DHT22;12921;51.392;12.240;2022-08-25T16:03:02;29.30;99.90
24844;DHT22;12921;51.392;12.240;2022-08-25T16:05:28;29.30;99.90
24844;DHT22;12921;51.392;12.240;2022-08-25T16:07:54;29.40;99.90
24844;DHT22;12921;51.392;12.240;2022-08-25T16:10:19;29.40;99.90
24844;DHT22;12921;51.392;12.240;2022-08-25T16:12:45;29.30;99.90
24844;DHT22;12921;51.392;12.240;2022-08-25T16:15:11;29.30;99.90
24844;DHT22;12921;51.392;12.240;2022-08-25T16:17:36;29.20;99.90
24844;DHT22;12921;51.392;12.240;2022-08-25T16:20:03;29.20;99.90
24844;DHT22;12921;51.392;12.240;2022-08-25T16:22:28;29.10;99.90
24844;DHT22;12921;51.392;12.240;2022-08-25T16:24:54;29.00;99.90
24844;DHT22;12921;51.392;12.240;2022-08-25T16:27:20;28.90;99.90
24844;DHT22;12921;51.392;12.240;2022-08-25T16:29:45;29.00;99.90
24844;DHT22;12921;51.392;12.240;2022-08-25T16:32:12;28.90;99.90
24844;DHT22;12921;51.392;12.240;2022-08-25T16:34:38;28.90;99.90
24844;DHT22;12921;51.392;12.240;2022-08-25T16:37:05;28.80;99.90
24844;DHT22;12921;51.392;12.240;2022-08-25T16:39:31;28.80;99.90
24844;DHT22;12921;51.392;12.240;2022-08-25T16:41:56;28.80;99.90
24844;DHT22;12921;51.392;12.240;2022-08-25T16:44:22;28.70;99.90
24844;DHT22;12921;51.392;12.240;2022-08-25T16:46:49;28.70;99.90
24844;DHT22;12921;51.392;12.240;2022-08-25T16:49:18;28.70;99.90
24844;DHT22;12921;51.392;12.240;2022-08-25T16:51:44;28.60;99.90
24844;DHT22;12921;51.392;12.240;2022-08-25T16:54:10;28.50;99.90
24844;DHT22;12921;51.392;12.240;2022-08-25T16:56:55;28.50;99.90
24844;DHT22;12921;51.392;12.240;2022-08-25T16:59:23;28.40;99.90
24844;DHT22;12921;51.392;12.240;2022-08-25T17:01:49;28.40;99.90
24844;DHT22;12921;51.392;12.240;2022-08-25T17:04:15;28.30;99.90
24844;DHT22;12921;51.392;12.240;2022-08-25T17:06:42;28.30;99.90
24844;DHT22;12921;51.392;12.240;2022-08-25T17:09:10;28.30;99.90
24844;DHT22;12921;51.392;12.240;2022-08-25T17:11:44;28.20;99.90
24844;DHT22;12921;51.392;12.240;2022-08-25T17:14:15;28.10;99.90
24844;DHT22;12921;51.392;12.240;2022-08-25T17:16:42;28.00;99.90
24844;DHT22;12921;51.392;12.240;2022-08-25T17:19:09;28.00;99.90
24844;DHT22;12921;51.392;12.240;2022-08-25T17:21:41;27.90;99.90
24844;DHT22;12921;51.392;12.240;2022-08-25T17:24:09;27.80;99.90
24844;DHT22;12921;51.392;12.240;2022-08-25T17:26:37;27.70;99.90
24844;DHT22;12921;51.392;12.240;2022-08-25T17:29:03;27.60;99.90
24844;DHT22;12921;51.392;12.240;2022-08-25T17:31:29;27.60;99.90
24844;DHT22;12921;51.392;12.240;2022-08-25T17:33:54;27.50;99.90
24844;DHT22;12921;51.392;12.240;2022-08-25T17:36:20;27.40;99.90
24844;DHT22;12921;51.392;12.240;2022-08-25T17:38:46;27.40;99.90